createdAt,value
2017-07-24T00:00:12.339Z,14.94
2017-07-24T00:01:12.271Z,14.96
2017-07-24T00:02:12.276Z,15.01
2017-07-24T00:03:12.283Z,15.03
2017-07-24T00:04:12.301Z,15.05
2017-07-24T00:05:12.284Z,15.06
2017-07-24T00:06:12.295Z,15.08
2017-07-24T00:07:12.291Z,15.08
2017-07-24T00:08:12.293Z,15.10
2017-07-24T00:09:12.300Z,15.10
2017-07-24T00:10:12.300Z,15.10
2017-07-24T00:11:12.304Z,15.05
2017-07-24T00:12:12.305Z,15.02
2017-07-24T00:13:12.309Z,15.01
2017-07-24T00:14:12.311Z,14.99
2017-07-24T00:15:12.321Z,14.94
2017-07-24T00:16:12.319Z,14.89
2017-07-24T00:17:12.322Z,14.86
2017-07-24T00:18:12.325Z,14.84
2017-07-24T00:19:12.327Z,14.78
2017-07-24T00:20:12.331Z,14.71
2017-07-24T00:21:12.361Z,14.67
2017-07-24T00:22:12.332Z,14.60
2017-07-24T00:23:12.334Z,14.58
2017-07-24T00:24:12.340Z,14.58
2017-07-24T00:25:12.343Z,14.55
2017-07-24T00:26:12.345Z,14.55
2017-07-24T00:27:12.360Z,14.58
2017-07-24T00:28:12.349Z,14.60
2017-07-24T00:29:12.366Z,14.61
2017-07-24T00:30:12.358Z,14.60
2017-07-24T00:31:12.362Z,14.59
2017-07-24T00:32:12.362Z,14.57
2017-07-24T00:33:12.365Z,14.57
2017-07-24T00:34:12.375Z,14.59
2017-07-24T00:35:12.371Z,14.62
2017-07-24T00:36:12.376Z,14.64
2017-07-24T00:37:12.379Z,14.64
2017-07-24T00:38:12.400Z,14.59
2017-07-24T00:39:12.384Z,14.61
2017-07-24T00:40:12.389Z,14.60
2017-07-24T00:41:12.388Z,14.60
2017-07-24T00:42:12.392Z,14.59
2017-07-24T00:43:12.397Z,14.58
2017-07-24T00:44:12.397Z,14.55
2017-07-24T00:45:12.400Z,14.56
2017-07-24T00:46:12.415Z,14.53
2017-07-24T00:47:12.412Z,14.53
2017-07-24T00:48:12.407Z,14.48
2017-07-24T00:49:12.411Z,14.46
2017-07-24T00:50:12.415Z,14.47
2017-07-24T00:51:12.417Z,14.45
2017-07-24T00:52:12.421Z,14.43
2017-07-24T00:53:12.426Z,14.42
2017-07-24T00:54:12.436Z,14.40
2017-07-24T00:55:12.429Z,14.42
2017-07-24T00:56:12.434Z,14.46
2017-07-24T00:57:12.435Z,14.46
2017-07-24T00:58:12.440Z,14.46
2017-07-24T00:59:12.439Z,14.41
2017-07-24T01:02:31.252Z,14.36
2017-07-24T01:02:32.114Z,14.27
2017-07-24T01:02:32.816Z,14.21
2017-07-24T01:03:12.451Z,14.16
2017-07-24T01:05:44.086Z,14.11
2017-07-24T01:05:45.140Z,14.08
2017-07-24T01:08:31.018Z,14.04
2017-07-24T01:08:32.319Z,14.04
2017-07-24T01:08:33.020Z,14.03
2017-07-24T01:11:52.179Z,14.06
2017-07-24T01:11:53.522Z,14.07
2017-07-24T01:11:54.192Z,14.09
2017-07-24T01:14:31.016Z,14.14
2017-07-24T01:14:32.149Z,14.17
2017-07-24T01:14:32.753Z,14.13
2017-07-24T01:20:49.452Z,14.11
2017-07-24T01:21:19.927Z,14.10
2017-07-24T01:21:20.575Z,14.06
2017-07-24T01:21:21.180Z,14.05
2017-07-24T01:21:21.785Z,14.04
2017-07-24T01:21:22.394Z,14.05
2017-07-24T01:21:23.133Z,14.01
2017-07-24T01:22:12.510Z,13.98
2017-07-24T01:23:12.513Z,13.98
2017-07-24T01:26:31.258Z,13.95
2017-07-24T01:26:32.445Z,13.93
2017-07-24T01:26:33.055Z,13.94
2017-07-24T01:29:42.315Z,13.98
2017-07-24T01:29:43.697Z,14.00
2017-07-24T01:29:44.303Z,14.00
2017-07-24T01:33:02.356Z,14.01
2017-07-24T01:33:03.204Z,13.98
2017-07-24T01:33:03.816Z,13.98
2017-07-24T01:35:41.067Z,13.98
2017-07-24T01:35:42.148Z,13.98
2017-07-24T01:35:42.751Z,14.01
2017-07-24T01:38:31.343Z,14.02
2017-07-24T01:38:32.526Z,14.01
2017-07-24T01:38:33.130Z,15.29
2017-07-24T01:44:13.236Z,13.97
2017-07-24T01:44:14.599Z,13.93
2017-07-24T01:44:15.310Z,13.91
2017-07-24T01:44:15.921Z,13.86
2017-07-24T01:44:16.725Z,13.80
2017-07-24T01:44:17.335Z,13.73
2017-07-24T01:45:12.576Z,13.68
2017-07-24T01:51:16.287Z,13.64
2017-07-24T01:51:17.301Z,13.64
2017-07-24T01:51:17.907Z,13.64
2017-07-24T01:51:18.542Z,13.67
2017-07-24T01:51:19.237Z,13.67
2017-07-24T01:51:19.847Z,13.68
2017-07-24T01:52:12.599Z,13.68
2017-07-24T01:53:12.598Z,13.65
2017-07-24T01:56:31.231Z,13.62
2017-07-24T01:56:32.473Z,13.62
2017-07-24T01:56:33.196Z,13.61
2017-07-24T01:59:44.939Z,13.58
2017-07-24T01:59:45.874Z,13.58
2017-07-24T01:59:46.583Z,13.59
2017-07-24T02:00:12.621Z,13.62
2017-07-24T02:01:12.622Z,13.61
2017-07-24T02:02:12.625Z,13.63
2017-07-24T02:03:12.629Z,13.64
2017-07-24T02:04:12.631Z,13.62
2017-07-24T02:05:12.636Z,13.60
2017-07-24T02:06:12.639Z,13.56
2017-07-24T02:07:12.657Z,13.55
2017-07-24T02:08:12.641Z,13.55
2017-07-24T02:09:12.642Z,13.55
2017-07-24T02:10:12.647Z,13.53
2017-07-24T02:11:12.652Z,13.52
2017-07-24T02:12:12.657Z,13.49
2017-07-24T02:13:12.658Z,13.48
2017-07-24T02:14:12.662Z,13.50
2017-07-24T02:15:12.664Z,13.49
2017-07-24T02:16:12.668Z,13.48
2017-07-24T02:17:12.671Z,13.49
2017-07-24T02:18:12.673Z,13.47
2017-07-24T02:19:12.674Z,13.44
2017-07-24T02:20:12.681Z,13.44
2017-07-24T02:21:12.681Z,13.45
2017-07-24T02:22:12.684Z,13.47
2017-07-24T02:23:12.688Z,13.51
2017-07-24T02:24:12.696Z,13.54
2017-07-24T02:25:12.692Z,13.53
2017-07-24T02:26:12.696Z,13.55
2017-07-24T02:27:12.698Z,13.55
2017-07-24T02:28:12.702Z,13.57
2017-07-24T02:29:12.705Z,13.56
2017-07-24T02:30:12.708Z,13.54
2017-07-24T02:31:12.712Z,13.52
2017-07-24T02:32:12.710Z,13.54
2017-07-24T02:33:12.716Z,13.55
2017-07-24T02:34:12.747Z,13.56
2017-07-24T02:35:12.721Z,13.53
2017-07-24T02:36:12.725Z,13.52
2017-07-24T02:37:12.727Z,13.50
2017-07-24T02:38:12.736Z,13.53
2017-07-24T02:39:12.731Z,13.50
2017-07-24T02:40:12.736Z,13.47
2017-07-24T02:41:12.740Z,13.45
2017-07-24T02:42:12.745Z,13.42
2017-07-24T02:43:12.746Z,13.45
2017-07-24T02:44:12.748Z,13.46
2017-07-24T02:45:12.752Z,13.47
2017-07-24T02:46:12.754Z,13.51
2017-07-24T02:47:12.758Z,13.51
2017-07-24T02:48:12.763Z,13.50
2017-07-24T02:49:12.772Z,13.53
2017-07-24T02:50:12.770Z,13.54
2017-07-24T02:51:12.769Z,13.55
2017-07-24T02:52:12.770Z,13.50
2017-07-24T02:53:12.777Z,13.46
2017-07-24T02:54:12.782Z,13.41
2017-07-24T02:55:12.778Z,13.36
2017-07-24T02:56:12.782Z,13.36
2017-07-24T02:57:12.791Z,13.35
2017-07-24T02:58:12.787Z,13.34
2017-07-24T02:59:12.792Z,13.33
2017-07-24T03:00:12.803Z,13.36
2017-07-24T03:01:12.801Z,13.37
2017-07-24T03:02:12.802Z,13.39
2017-07-24T03:03:12.804Z,13.40
2017-07-24T03:04:12.803Z,13.43
2017-07-24T03:05:12.810Z,13.46
2017-07-24T03:06:12.810Z,13.46
2017-07-24T03:09:14.062Z,13.47
2017-07-24T03:09:15.151Z,13.50
2017-07-24T03:09:15.855Z,13.49
2017-07-24T03:10:12.852Z,13.51
2017-07-24T03:11:12.831Z,13.51
2017-07-24T03:12:12.830Z,13.50
2017-07-24T03:13:12.835Z,13.48
2017-07-24T03:14:12.842Z,13.46
2017-07-24T03:15:12.850Z,13.47
2017-07-24T03:16:12.841Z,13.45
2017-07-24T03:17:12.848Z,13.43
2017-07-24T03:18:12.859Z,13.43
2017-07-24T03:19:12.852Z,13.44
2017-07-24T03:20:12.855Z,13.46
2017-07-24T03:21:12.856Z,13.49
2017-07-24T03:22:12.859Z,13.51
2017-07-24T03:23:12.862Z,13.53
2017-07-24T03:24:12.865Z,13.54
2017-07-24T03:25:12.874Z,13.57
2017-07-24T03:26:12.870Z,13.59
2017-07-24T03:27:12.874Z,13.61
2017-07-24T03:28:12.876Z,13.62
2017-07-24T03:29:12.879Z,13.59
2017-07-24T03:30:12.883Z,13.58
2017-07-24T03:31:12.886Z,13.55
2017-07-24T03:32:12.889Z,13.55
2017-07-24T03:33:12.894Z,13.52
2017-07-24T03:34:12.894Z,13.48
2017-07-24T03:35:12.897Z,13.50
2017-07-24T03:36:12.902Z,13.50
2017-07-24T03:37:12.904Z,13.49
2017-07-24T03:38:12.907Z,13.49
2017-07-24T03:39:12.907Z,13.51
2017-07-24T03:40:12.912Z,13.49
2017-07-24T03:41:12.917Z,13.49
2017-07-24T03:42:12.918Z,13.50
2017-07-24T03:43:12.923Z,13.51
2017-07-24T03:44:12.927Z,13.50
2017-07-24T03:45:12.927Z,13.49
2017-07-24T03:46:12.931Z,13.47
2017-07-24T03:47:12.938Z,13.46
2017-07-24T03:48:12.935Z,13.45
2017-07-24T03:49:12.943Z,13.47
2017-07-24T03:50:12.942Z,13.45
2017-07-24T03:51:12.941Z,13.47
2017-07-24T03:52:12.947Z,13.50
2017-07-24T03:53:12.951Z,13.52
2017-07-24T03:54:12.957Z,13.58
2017-07-24T03:55:12.958Z,13.58
2017-07-24T03:56:12.959Z,13.60
2017-07-24T03:57:12.961Z,13.63
2017-07-24T03:58:12.964Z,13.65
2017-07-24T03:59:12.968Z,13.65
2017-07-24T04:00:14.970Z,13.66
2017-07-24T04:01:12.976Z,13.67
2017-07-24T04:02:12.976Z,13.69
2017-07-24T04:03:12.980Z,13.70
2017-07-24T04:04:12.980Z,13.71
2017-07-24T04:05:12.988Z,13.75
2017-07-24T04:06:12.988Z,13.78
2017-07-24T04:07:12.992Z,13.81
2017-07-24T04:08:12.991Z,13.82
2017-07-24T04:09:12.998Z,13.85
2017-07-24T04:10:12.999Z,13.88
2017-07-24T04:11:13.013Z,13.91
2017-07-24T04:12:13.013Z,13.94
2017-07-24T04:13:13.037Z,13.98
2017-07-24T04:14:13.013Z,14.02
2017-07-24T04:15:13.014Z,14.06
2017-07-24T04:16:13.017Z,14.08
2017-07-24T04:17:13.024Z,14.10
2017-07-24T04:18:13.023Z,14.13
2017-07-24T04:19:13.030Z,14.14
2017-07-24T04:20:13.028Z,14.18
2017-07-24T04:21:13.029Z,14.19
2017-07-24T04:22:13.036Z,14.16
2017-07-24T04:23:13.040Z,14.15
2017-07-24T04:24:13.041Z,14.14
2017-07-24T04:25:13.046Z,14.13
2017-07-24T04:26:13.044Z,14.14
2017-07-24T04:27:13.051Z,14.15
2017-07-24T04:28:13.054Z,14.16
2017-07-24T04:29:13.067Z,14.15
2017-07-24T04:30:13.062Z,14.15
2017-07-24T04:31:13.062Z,14.16
2017-07-24T04:32:13.063Z,14.18
2017-07-24T04:33:13.066Z,14.20
2017-07-24T04:34:13.068Z,14.21
2017-07-24T04:35:13.073Z,14.21
2017-07-24T04:36:13.081Z,14.24
2017-07-24T04:37:13.075Z,14.26
2017-07-24T04:38:13.081Z,14.28
2017-07-24T04:39:13.085Z,14.33
2017-07-24T04:40:13.097Z,14.36
2017-07-24T04:41:13.114Z,14.40
2017-07-24T04:42:13.092Z,14.44
2017-07-24T04:43:13.096Z,14.47
2017-07-24T04:44:13.101Z,14.50
2017-07-24T04:45:13.108Z,14.54
2017-07-24T04:46:13.106Z,14.57
2017-07-24T04:47:13.111Z,14.60
2017-07-24T04:48:13.109Z,14.64
2017-07-24T04:49:13.122Z,14.66
2017-07-24T04:50:13.115Z,14.71
2017-07-24T04:51:13.122Z,14.75
2017-07-24T04:52:13.121Z,14.77
2017-07-24T04:53:13.137Z,14.76
2017-07-24T04:54:13.126Z,14.78
2017-07-24T04:55:13.132Z,14.75
2017-07-24T04:56:13.135Z,14.75
2017-07-24T04:57:13.139Z,14.75
2017-07-24T04:58:13.142Z,14.76
2017-07-24T04:59:13.148Z,14.75
2017-07-24T05:00:13.148Z,14.72
2017-07-24T05:01:13.149Z,14.75
2017-07-24T05:02:13.155Z,14.74
2017-07-24T05:03:13.158Z,14.76
2017-07-24T05:04:13.159Z,14.76
2017-07-24T05:05:13.162Z,14.75
2017-07-24T05:06:13.165Z,14.80
2017-07-24T05:07:13.190Z,14.78
2017-07-24T05:08:13.169Z,14.78
2017-07-24T05:09:13.177Z,14.76
2017-07-24T05:10:13.181Z,14.80
2017-07-24T05:11:13.184Z,14.78
2017-07-24T05:12:13.179Z,14.80
2017-07-24T05:13:13.186Z,14.82
2017-07-24T05:14:13.189Z,14.82
2017-07-24T05:15:13.197Z,14.85
2017-07-24T05:16:13.196Z,14.87
2017-07-24T05:17:13.197Z,14.86
2017-07-24T05:18:13.199Z,14.87
2017-07-24T05:19:13.206Z,14.88
2017-07-24T05:20:13.209Z,14.91
2017-07-24T05:21:13.206Z,14.93
2017-07-24T05:22:13.211Z,14.90
2017-07-24T05:23:13.213Z,14.94
2017-07-24T05:24:13.217Z,14.95
2017-07-24T05:25:13.219Z,14.95
2017-07-24T05:26:13.222Z,14.95
2017-07-24T05:27:13.226Z,14.95
2017-07-24T05:28:13.229Z,14.99
2017-07-24T05:29:13.232Z,15.01
2017-07-24T05:30:13.236Z,15.04
2017-07-24T05:31:13.240Z,15.09
2017-07-24T05:32:13.243Z,15.10
2017-07-24T05:33:13.269Z,15.13
2017-07-24T05:34:13.245Z,15.14
2017-07-24T05:35:13.251Z,15.15
2017-07-24T05:36:13.257Z,15.20
2017-07-24T05:37:13.257Z,15.21
2017-07-24T05:38:13.256Z,15.23
2017-07-24T05:39:13.260Z,15.25
2017-07-24T05:40:13.263Z,15.28
2017-07-24T05:41:13.267Z,15.31
2017-07-24T05:42:13.270Z,15.33
2017-07-24T05:43:13.273Z,15.35
2017-07-24T05:44:13.277Z,15.38
2017-07-24T05:45:13.280Z,15.40
2017-07-24T05:46:13.288Z,15.43
2017-07-24T05:47:13.283Z,15.50
2017-07-24T05:48:13.284Z,15.55
2017-07-24T05:49:13.290Z,15.58
2017-07-24T05:50:13.296Z,15.62
2017-07-24T05:51:13.302Z,15.65
2017-07-24T05:52:13.306Z,15.66
2017-07-24T05:53:13.315Z,15.72
2017-07-24T05:54:13.305Z,15.74
2017-07-24T05:55:13.317Z,15.78
2017-07-24T05:56:13.311Z,15.78
2017-07-24T05:57:13.315Z,15.79
2017-07-24T05:58:13.621Z,15.80
2017-07-24T05:59:13.595Z,15.86
2017-07-24T06:00:13.386Z,15.91
2017-07-24T06:01:13.327Z,15.95
2017-07-24T06:02:13.330Z,15.97
2017-07-24T06:03:13.348Z,16.01
2017-07-24T06:04:13.346Z,16.02
2017-07-24T06:05:13.337Z,16.07
2017-07-24T06:06:13.338Z,16.13
2017-07-24T06:07:13.343Z,16.15
2017-07-24T06:08:13.345Z,16.19
2017-07-24T06:09:13.352Z,16.25
2017-07-24T06:10:13.353Z,16.33
2017-07-24T06:11:13.354Z,16.38
2017-07-24T06:12:13.360Z,16.44
2017-07-24T06:13:13.363Z,16.47
2017-07-24T06:14:13.364Z,16.47
2017-07-24T06:15:13.370Z,16.50
2017-07-24T06:16:13.371Z,16.52
2017-07-24T06:17:13.522Z,16.58
2017-07-24T06:18:13.378Z,16.63
2017-07-24T06:19:13.379Z,16.69
2017-07-24T06:20:13.385Z,16.75
2017-07-24T06:21:13.387Z,16.82
2017-07-24T06:22:13.412Z,16.86
2017-07-24T06:23:13.390Z,16.94
2017-07-24T06:24:13.396Z,16.97
2017-07-24T06:25:13.396Z,17.02
2017-07-24T06:26:13.398Z,17.04
2017-07-24T06:27:13.408Z,17.09
2017-07-24T06:28:13.407Z,17.12
2017-07-24T06:29:13.424Z,17.13
2017-07-24T06:30:13.412Z,17.14
2017-07-24T06:31:13.413Z,17.18
2017-07-24T06:32:13.417Z,17.18
2017-07-24T06:33:13.420Z,17.23
2017-07-24T06:34:13.426Z,17.23
2017-07-24T06:35:13.426Z,17.25
2017-07-24T06:36:13.430Z,17.25
2017-07-24T06:37:13.431Z,17.24
2017-07-24T06:38:13.435Z,17.28
2017-07-24T06:39:13.438Z,17.24
2017-07-24T06:40:13.440Z,17.26
2017-07-24T06:41:13.447Z,17.32
2017-07-24T06:42:13.447Z,17.34
2017-07-24T06:43:13.448Z,17.34
2017-07-24T06:44:13.452Z,17.33
2017-07-24T06:45:13.465Z,17.33
2017-07-24T06:46:13.457Z,17.36
2017-07-24T06:47:13.462Z,17.38
2017-07-24T06:48:13.462Z,17.40
2017-07-24T06:49:13.470Z,17.45
2017-07-24T06:50:13.469Z,17.48
2017-07-24T06:51:13.473Z,17.51
2017-07-24T06:52:13.476Z,17.56
2017-07-24T06:53:13.477Z,17.58
2017-07-24T06:54:13.484Z,17.63
2017-07-24T06:55:13.487Z,17.64
2017-07-24T06:56:13.494Z,17.67
2017-07-24T06:57:13.490Z,17.72
2017-07-24T06:58:13.491Z,17.75
2017-07-24T06:59:13.497Z,17.80
2017-07-24T07:00:13.504Z,17.80
2017-07-24T07:01:13.499Z,17.82
2017-07-24T07:02:13.505Z,17.84
2017-07-24T07:03:13.510Z,17.84
2017-07-24T07:04:13.512Z,17.85
2017-07-24T07:05:13.515Z,17.86
2017-07-24T07:06:13.517Z,17.87
2017-07-24T07:07:13.524Z,17.90
2017-07-24T07:08:13.546Z,17.92
2017-07-24T07:09:13.524Z,17.94
2017-07-24T07:10:13.529Z,17.95
2017-07-24T07:11:13.532Z,17.97
2017-07-24T07:12:13.536Z,17.96
2017-07-24T07:13:13.538Z,17.96
2017-07-24T07:14:13.541Z,17.94
2017-07-24T07:15:13.547Z,17.95
2017-07-24T07:16:13.553Z,17.89
2017-07-24T07:17:13.551Z,17.89
2017-07-24T07:18:13.565Z,17.91
2017-07-24T07:19:13.556Z,17.92
2017-07-24T07:20:13.558Z,17.94
2017-07-24T07:21:13.562Z,17.97
2017-07-24T07:22:13.568Z,18.02
2017-07-24T07:23:13.566Z,18.04
2017-07-24T07:24:13.582Z,18.06
2017-07-24T07:25:13.572Z,18.11
2017-07-24T07:26:13.573Z,18.12
2017-07-24T07:27:13.576Z,18.10
2017-07-24T07:28:13.580Z,18.09
2017-07-24T07:29:13.587Z,18.09
2017-07-24T07:30:13.827Z,18.12
2017-07-24T07:31:13.593Z,18.16
2017-07-24T07:32:13.595Z,18.22
2017-07-24T07:33:13.594Z,18.28
2017-07-24T07:34:13.598Z,18.38
2017-07-24T07:35:13.601Z,18.44
2017-07-24T07:36:13.629Z,18.51
2017-07-24T07:37:13.627Z,18.57
2017-07-24T07:38:13.620Z,18.66
2017-07-24T07:39:13.620Z,18.80
2017-07-24T07:40:13.616Z,18.92
2017-07-24T07:41:13.619Z,19.06
2017-07-24T07:42:13.621Z,19.21
2017-07-24T07:43:13.626Z,19.35
2017-07-24T07:44:13.629Z,19.50
2017-07-24T07:45:13.640Z,19.60
2017-07-24T07:46:13.633Z,19.60
2017-07-24T07:47:13.646Z,19.49
2017-07-24T07:48:13.640Z,19.45
2017-07-24T07:49:13.647Z,19.40
2017-07-24T07:50:13.647Z,19.29
2017-07-24T07:51:13.647Z,19.26
2017-07-24T07:52:13.648Z,19.18
2017-07-24T07:53:13.654Z,19.08
2017-07-24T07:54:13.654Z,19.06
2017-07-24T07:55:13.660Z,19.05
2017-07-24T07:56:13.708Z,19.04
2017-07-24T07:57:13.669Z,19.06
2017-07-24T07:58:13.670Z,19.14
2017-07-24T07:59:13.672Z,19.23
2017-07-24T08:00:13.681Z,19.27
2017-07-24T08:01:13.687Z,19.31
2017-07-24T08:02:13.679Z,19.33
2017-07-24T08:03:13.686Z,19.39
2017-07-24T08:04:13.689Z,19.45
2017-07-24T08:05:13.687Z,19.55
2017-07-24T08:06:13.689Z,19.59
2017-07-24T08:07:13.694Z,19.67
2017-07-24T08:08:13.704Z,19.75
2017-07-24T08:09:13.700Z,19.82
2017-07-24T08:10:13.704Z,19.89
2017-07-24T08:11:13.708Z,19.95
2017-07-24T08:12:13.709Z,19.98
2017-07-24T08:13:13.717Z,19.94
2017-07-24T08:14:13.719Z,20.01
2017-07-24T08:15:13.722Z,20.05
2017-07-24T08:16:13.728Z,20.10
2017-07-24T08:17:13.728Z,20.08
2017-07-24T08:18:13.726Z,20.09
2017-07-24T08:19:13.729Z,20.03
2017-07-24T08:20:13.734Z,19.95
2017-07-24T08:21:13.736Z,19.88
2017-07-24T08:22:13.740Z,19.94
2017-07-24T08:23:13.741Z,19.99
2017-07-24T08:24:13.743Z,20.06
2017-07-24T08:25:13.749Z,20.11
2017-07-24T08:26:13.750Z,20.15
2017-07-24T08:27:13.755Z,20.20
2017-07-24T08:28:13.757Z,20.26
2017-07-24T08:29:13.761Z,20.32
2017-07-24T08:30:13.774Z,20.38
2017-07-24T08:31:13.767Z,20.46
2017-07-24T08:32:13.768Z,20.51
2017-07-24T08:33:13.777Z,20.44
2017-07-24T08:34:13.775Z,20.36
2017-07-24T08:35:13.778Z,20.35
2017-07-24T08:36:13.786Z,20.39
2017-07-24T08:37:13.784Z,20.29
2017-07-24T08:38:13.787Z,20.28
2017-07-24T08:39:13.792Z,20.34
2017-07-24T08:40:13.789Z,20.30
2017-07-24T08:41:13.796Z,20.31
2017-07-24T08:42:13.802Z,20.33
2017-07-24T08:43:13.799Z,20.36
2017-07-24T08:44:13.805Z,20.32
2017-07-24T08:45:13.806Z,20.28
2017-07-24T08:46:13.812Z,20.31
2017-07-24T08:47:13.837Z,20.32
2017-07-24T08:48:13.815Z,20.26
2017-07-24T08:49:13.824Z,20.27
2017-07-24T08:50:13.824Z,20.25
2017-07-24T08:51:13.827Z,20.28
2017-07-24T08:52:13.826Z,20.29
2017-07-24T08:53:13.833Z,20.33
2017-07-24T08:54:13.833Z,20.38
2017-07-24T08:55:13.834Z,20.33
2017-07-24T08:56:13.846Z,20.32
2017-07-24T08:57:13.857Z,20.35
2017-07-24T08:58:13.841Z,20.42
2017-07-24T08:59:13.845Z,20.44
2017-07-24T09:00:13.851Z,20.46
2017-07-24T09:01:13.860Z,20.50
2017-07-24T09:02:13.858Z,20.55
2017-07-24T09:03:17.211Z,20.63
2017-07-24T09:04:13.862Z,20.72
2017-07-24T09:05:13.864Z,20.81
2017-07-24T09:06:13.869Z,20.89
2017-07-24T09:07:13.871Z,21.01
2017-07-24T09:08:13.877Z,21.14
2017-07-24T09:09:13.876Z,21.26
2017-07-24T09:10:13.878Z,21.40
2017-07-24T09:11:13.883Z,21.47
2017-07-24T09:12:13.882Z,21.53
2017-07-24T09:13:13.888Z,21.57
2017-07-24T09:14:13.947Z,21.59
2017-07-24T09:15:13.893Z,21.61
2017-07-24T09:16:13.898Z,21.63
2017-07-24T09:17:13.901Z,21.67
2017-07-24T09:18:14.228Z,21.55
2017-07-24T09:19:13.906Z,21.43
2017-07-24T09:20:13.907Z,21.41
2017-07-24T09:21:13.912Z,21.39
2017-07-24T09:22:13.911Z,21.38
2017-07-24T09:23:13.936Z,21.40
2017-07-24T09:24:13.922Z,21.41
2017-07-24T09:25:13.920Z,21.41
2017-07-24T09:26:13.938Z,21.42
2017-07-24T09:27:13.925Z,21.41
2017-07-24T09:28:13.931Z,21.40
2017-07-24T09:29:13.935Z,21.39
2017-07-24T09:30:13.934Z,21.39
2017-07-24T09:31:13.939Z,21.40
2017-07-24T09:32:13.945Z,21.33
2017-07-24T09:33:13.944Z,21.30
2017-07-24T09:34:13.950Z,21.31
2017-07-24T09:35:13.952Z,21.36
2017-07-24T09:36:13.953Z,21.43
2017-07-24T09:37:13.958Z,21.41
2017-07-24T09:38:13.964Z,21.38
2017-07-24T09:39:13.963Z,21.43
2017-07-24T09:40:18.248Z,21.48
2017-07-24T09:41:13.976Z,21.53
2017-07-24T09:42:13.974Z,21.55
2017-07-24T09:43:13.976Z,21.56
2017-07-24T09:44:13.982Z,21.56
2017-07-24T09:45:14.000Z,21.51
2017-07-24T09:46:13.998Z,21.50
2017-07-24T09:47:13.990Z,21.48
2017-07-24T09:48:13.990Z,21.45
2017-07-24T09:49:13.990Z,21.42
2017-07-24T09:50:13.995Z,21.45
2017-07-24T09:51:13.997Z,21.46
2017-07-24T09:52:14.000Z,21.49
2017-07-24T09:53:14.002Z,21.43
2017-07-24T09:54:14.004Z,21.37
2017-07-24T09:55:14.006Z,21.38
2017-07-24T09:56:14.042Z,21.40
2017-07-24T09:57:14.015Z,21.38
2017-07-24T09:58:14.059Z,21.28
2017-07-24T09:59:14.018Z,21.28
2017-07-24T10:00:14.076Z,21.26
2017-07-24T10:01:14.032Z,21.26
2017-07-24T10:02:14.049Z,21.28
2017-07-24T10:03:14.036Z,21.27
2017-07-24T10:04:14.066Z,21.24
2017-07-24T10:05:14.038Z,21.18
2017-07-24T10:06:14.039Z,21.15
2017-07-24T10:07:14.044Z,21.14
2017-07-24T10:08:14.050Z,21.04
2017-07-24T10:09:16.362Z,20.97
2017-07-24T10:10:14.052Z,20.96
2017-07-24T10:11:14.065Z,20.95
2017-07-24T10:12:14.059Z,20.93
2017-07-24T10:13:14.061Z,20.91
2017-07-24T10:14:14.089Z,20.89
2017-07-24T10:15:14.128Z,20.91
2017-07-24T10:16:14.070Z,20.95
2017-07-24T10:17:14.073Z,20.99
2017-07-24T10:18:14.081Z,21.04
2017-07-24T10:19:14.077Z,21.08
2017-07-24T10:20:14.081Z,21.15
2017-07-24T10:21:14.092Z,21.19
2017-07-24T10:22:14.086Z,21.20
2017-07-24T10:23:14.088Z,21.20
2017-07-24T10:24:14.089Z,21.14
2017-07-24T10:25:14.102Z,21.10
2017-07-24T10:26:14.101Z,21.06
2017-07-24T10:27:14.104Z,21.01
2017-07-24T10:28:14.104Z,20.99
2017-07-24T10:29:14.108Z,20.98
2017-07-24T10:30:14.113Z,20.96
2017-07-24T10:31:14.114Z,20.93
2017-07-24T10:32:14.117Z,20.90
2017-07-24T10:33:14.120Z,20.90
2017-07-24T10:34:14.140Z,20.90
2017-07-24T10:35:14.124Z,20.89
2017-07-24T10:36:14.129Z,20.88
2017-07-24T10:37:14.133Z,20.86
2017-07-24T10:38:14.134Z,20.88
2017-07-24T10:39:14.133Z,20.91
2017-07-24T10:40:14.139Z,20.92
2017-07-24T10:41:14.143Z,20.96
2017-07-24T10:42:14.148Z,20.99
2017-07-24T10:43:14.148Z,21.00
2017-07-24T10:44:14.151Z,21.01
2017-07-24T10:45:14.155Z,21.02
2017-07-24T10:46:14.157Z,20.99
2017-07-24T10:47:14.157Z,20.95
2017-07-24T10:48:14.201Z,20.93
2017-07-24T10:49:14.182Z,20.90
2017-07-24T10:50:14.167Z,20.88
2017-07-24T10:51:14.171Z,20.83
2017-07-24T10:52:14.183Z,20.78
2017-07-24T10:53:14.179Z,20.74
2017-07-24T10:54:14.178Z,20.70
2017-07-24T10:55:14.184Z,20.65
2017-07-24T10:56:14.186Z,20.57
2017-07-24T10:57:14.187Z,20.54
2017-07-24T10:58:14.191Z,20.49
2017-07-24T10:59:14.194Z,20.46
2017-07-24T11:00:14.201Z,20.40
2017-07-24T11:01:14.206Z,20.37
2017-07-24T11:02:14.204Z,20.31
2017-07-24T11:03:14.206Z,20.30
2017-07-24T11:04:14.208Z,20.30
2017-07-24T11:05:14.260Z,20.27
2017-07-24T11:06:14.214Z,20.23
2017-07-24T11:07:14.264Z,20.19
2017-07-24T11:08:14.219Z,20.12
2017-07-24T11:09:14.220Z,20.00
2017-07-24T11:10:14.227Z,19.82
2017-07-24T11:11:14.229Z,19.64
2017-07-24T11:12:14.234Z,19.53
2017-07-24T11:13:14.234Z,19.42
2017-07-24T11:14:14.237Z,19.37
2017-07-24T11:15:14.242Z,19.33
2017-07-24T11:16:14.241Z,19.29
2017-07-24T11:17:14.304Z,19.24
2017-07-24T11:18:14.249Z,19.17
2017-07-24T11:19:14.255Z,19.14
2017-07-24T11:20:14.266Z,19.14
2017-07-24T11:21:14.264Z,19.18
2017-07-24T11:22:14.267Z,19.18
2017-07-24T11:23:14.269Z,19.18
2017-07-24T11:24:14.267Z,19.18
2017-07-24T11:25:14.267Z,19.17
2017-07-24T11:26:14.273Z,19.12
2017-07-24T11:27:14.275Z,19.09
2017-07-24T11:28:14.279Z,19.04
2017-07-24T11:29:14.283Z,19.00
2017-07-24T11:30:14.281Z,18.95
2017-07-24T11:31:14.285Z,18.93
2017-07-24T11:32:14.290Z,18.92
2017-07-24T11:33:14.293Z,18.88
2017-07-24T11:34:14.296Z,18.85
2017-07-24T11:35:14.299Z,18.75
2017-07-24T11:36:14.304Z,18.73
2017-07-24T11:37:14.311Z,18.71
2017-07-24T11:38:14.309Z,18.70
2017-07-24T11:39:14.312Z,18.68
2017-07-24T11:40:14.312Z,18.65
2017-07-24T11:41:14.319Z,18.64
2017-07-24T11:42:14.319Z,18.63
2017-07-24T11:43:14.325Z,18.62
2017-07-24T11:44:14.330Z,18.55
2017-07-24T11:45:14.448Z,18.53
2017-07-24T11:46:14.334Z,18.52
2017-07-24T11:47:14.340Z,18.54
2017-07-24T11:48:14.336Z,18.55
2017-07-24T11:49:14.352Z,18.55
2017-07-24T11:50:14.377Z,18.55
2017-07-24T11:51:14.350Z,18.58
2017-07-24T11:52:14.346Z,18.60
2017-07-24T11:53:14.351Z,18.57
2017-07-24T11:54:14.414Z,18.60
2017-07-24T11:55:14.354Z,18.59
2017-07-24T11:56:14.360Z,18.56
2017-07-24T11:57:14.366Z,18.54
2017-07-24T11:58:14.366Z,18.54
2017-07-24T11:59:14.369Z,18.52
2017-07-24T12:00:14.375Z,18.51
2017-07-24T12:01:14.375Z,18.51
2017-07-24T12:02:14.378Z,18.50
2017-07-24T12:03:14.384Z,18.50
2017-07-24T12:04:14.382Z,18.48
2017-07-24T12:05:14.393Z,18.49
2017-07-24T12:06:14.397Z,18.51
2017-07-24T12:07:14.395Z,18.55
2017-07-24T12:08:14.398Z,18.55
2017-07-24T12:09:14.398Z,18.58
2017-07-24T12:10:14.407Z,18.57
2017-07-24T12:11:14.405Z,18.58
2017-07-24T12:12:14.612Z,18.60
2017-07-24T12:13:14.431Z,18.60
2017-07-24T12:14:14.412Z,18.59
2017-07-24T12:15:14.417Z,18.56
2017-07-24T12:16:14.415Z,18.51
2017-07-24T12:17:14.422Z,18.49
2017-07-24T12:18:14.426Z,18.47
2017-07-24T12:19:14.436Z,18.44
2017-07-24T12:20:14.430Z,18.44
2017-07-24T12:21:14.433Z,18.40
2017-07-24T12:22:14.434Z,18.38
2017-07-24T12:23:14.438Z,18.35
2017-07-24T12:24:14.442Z,18.35
2017-07-24T12:25:14.445Z,18.34
2017-07-24T12:26:14.450Z,18.34
2017-07-24T12:27:14.453Z,18.33
2017-07-24T12:28:14.452Z,18.33
2017-07-24T12:29:14.464Z,18.28
2017-07-24T12:30:14.457Z,18.27
2017-07-24T12:31:14.522Z,18.21
2017-07-24T12:32:14.464Z,18.21
2017-07-24T12:33:14.468Z,18.20
2017-07-24T12:34:14.476Z,18.20
2017-07-24T12:35:14.472Z,18.18
2017-07-24T12:36:14.480Z,18.16
2017-07-24T12:37:14.482Z,18.11
2017-07-24T12:38:14.481Z,18.08
2017-07-24T12:39:14.486Z,18.01
2017-07-24T12:40:14.493Z,17.96
2017-07-24T12:41:14.492Z,17.92
2017-07-24T12:42:14.535Z,17.90
2017-07-24T12:43:14.637Z,17.89
2017-07-24T12:44:17.735Z,17.88
2017-07-24T12:45:14.508Z,17.87
2017-07-24T12:48:47.135Z,17.84
2017-07-24T12:48:48.215Z,17.82
2017-07-24T12:48:48.821Z,17.81
2017-07-24T12:49:14.513Z,17.76
2017-07-24T12:52:12.136Z,17.74
2017-07-24T12:52:13.326Z,17.73
2017-07-24T12:52:14.524Z,17.73